createdAt,value
2022-12-09T00:00:22.827Z,40.40
2022-12-09T00:10:22.906Z,38.10
2022-12-09T00:20:22.873Z,39.00
2022-12-09T00:30:22.976Z,38.20
2022-12-09T00:40:23.019Z,37.20
2022-12-09T00:50:22.986Z,37.40
2022-12-09T01:00:23.061Z,40.80
2022-12-09T01:10:22.871Z,44.90
2022-12-09T01:20:23.158Z,37.20
2022-12-09T01:30:23.183Z,40.10
2022-12-09T01:40:23.160Z,41.80
2022-12-09T01:50:22.869Z,37.00
2022-12-09T02:00:22.887Z,39.90
2022-12-09T02:10:23.182Z,40.50
2022-12-09T02:20:22.878Z,39.70
2022-12-09T02:30:23.205Z,39.80
2022-12-09T02:40:23.104Z,35.00
2022-12-09T02:50:22.908Z,37.00
2022-12-09T03:00:22.934Z,35.80
2022-12-09T03:10:23.015Z,40.80
2022-12-09T03:20:23.254Z,37.40
2022-12-09T03:30:23.054Z,39.80
2022-12-09T03:40:25.649Z,39.30
2022-12-09T03:50:23.253Z,46.50
2022-12-09T04:00:23.188Z,40.00
2022-12-09T04:10:23.065Z,38.90
2022-12-09T04:20:22.959Z,43.20
2022-12-09T04:30:22.934Z,39.10
2022-12-09T04:40:24.342Z,42.30
2022-12-09T04:50:22.997Z,36.80
2022-12-09T05:00:23.170Z,41.60
2022-12-09T05:10:23.086Z,38.70
2022-12-09T05:20:23.162Z,37.60
2022-12-09T05:30:22.968Z,41.50
2022-12-09T05:40:23.013Z,36.60
2022-12-09T05:50:23.300Z,39.10
2022-12-09T06:00:23.235Z,39.90
2022-12-09T06:10:23.265Z,35.20
2022-12-09T06:20:22.952Z,39.10
2022-12-09T06:30:23.361Z,38.10
2022-12-09T06:40:23.025Z,36.10
2022-12-09T06:50:23.085Z,38.80
2022-12-09T07:00:23.310Z,36.30
2022-12-09T07:10:23.156Z,36.00
2022-12-09T07:20:23.153Z,38.00
2022-12-09T07:30:23.326Z,46.70
2022-12-09T07:40:23.403Z,38.00
2022-12-09T07:50:23.409Z,39.70
2022-12-09T08:00:23.301Z,38.10
2022-12-09T08:10:23.079Z,37.40
2022-12-09T08:20:28.817Z,38.10
2022-12-09T08:30:23.383Z,37.40
2022-12-09T08:40:23.122Z,37.50
2022-12-09T08:50:23.405Z,34.60
2022-12-09T09:00:23.389Z,33.80
2022-12-09T09:10:23.304Z,32.60
2022-12-09T09:20:23.322Z,34.70
2022-12-09T09:30:23.604Z,32.00
2022-12-09T09:40:23.362Z,26.30
2022-12-09T09:50:23.220Z,26.40
2022-12-09T10:00:24.510Z,31.70
2022-12-09T10:10:23.406Z,37.70
2022-12-09T10:20:23.459Z,33.70
2022-12-09T10:30:23.211Z,33.80
2022-12-09T10:40:23.324Z,33.40
2022-12-09T10:50:23.427Z,35.90
2022-12-09T11:00:23.420Z,38.80
2022-12-09T11:10:24.964Z,38.80
2022-12-09T11:20:23.463Z,37.80
2022-12-09T11:30:23.450Z,40.00
2022-12-09T11:40:23.062Z,44.70
2022-12-09T11:50:23.127Z,35.70
2022-12-09T12:00:23.061Z,34.80
2022-12-09T12:10:23.080Z,32.00
2022-12-09T12:20:23.071Z,31.50
2022-12-09T12:30:23.197Z,27.70
2022-12-09T12:40:26.755Z,28.10
2022-12-09T12:50:23.090Z,29.40
2022-12-09T13:00:23.174Z,28.20
2022-12-09T13:10:23.075Z,34.50
2022-12-09T13:20:23.114Z,37.00
2022-12-09T13:30:23.281Z,41.00
2022-12-09T13:40:23.116Z,46.20
2022-12-09T13:50:23.098Z,39.90
2022-12-09T14:00:23.105Z,39.70
2022-12-09T14:10:23.086Z,34.40
2022-12-09T14:20:23.107Z,39.60
2022-12-09T14:30:23.195Z,36.50
2022-12-09T14:40:23.134Z,37.80
2022-12-09T14:50:23.127Z,42.80
2022-12-09T15:00:23.104Z,36.60
2022-12-09T15:10:23.106Z,41.60
2022-12-09T15:20:23.121Z,44.00
2022-12-09T15:30:23.136Z,53.00
2022-12-09T15:40:23.137Z,53.60
2022-12-09T15:50:23.123Z,55.50
2022-12-09T16:00:23.238Z,55.00
2022-12-09T16:10:23.127Z,64.90
2022-12-09T16:20:23.205Z,62.50
2022-12-09T16:40:23.134Z,66.10
2022-12-09T16:50:23.143Z,63.10
2022-12-09T17:00:23.158Z,69.90
2022-12-09T17:10:23.175Z,70.30
2022-12-09T17:20:23.149Z,67.90
2022-12-09T17:30:23.178Z,70.20
2022-12-09T17:40:23.162Z,64.70
2022-12-09T17:50:23.179Z,65.10
2022-12-09T18:00:23.164Z,67.50
2022-12-09T18:10:23.267Z,72.90
2022-12-09T18:20:23.176Z,89.60
2022-12-09T18:30:23.179Z,84.60
2022-12-09T18:40:23.170Z,92.40
2022-12-09T18:50:23.180Z,83.20
2022-12-09T19:00:23.185Z,85.60
2022-12-09T19:10:23.219Z,99.40
2022-12-09T19:20:23.218Z,93.90
2022-12-09T19:30:23.231Z,103.10
2022-12-09T19:40:23.209Z,92.80
2022-12-09T19:50:23.258Z,92.30
2022-12-09T20:00:23.253Z,92.20
2022-12-09T20:10:23.274Z,92.80
2022-12-09T20:20:23.253Z,100.40
2022-12-09T20:30:23.240Z,100.80
2022-12-09T20:40:23.257Z,101.70
2022-12-09T20:50:23.366Z,99.40
2022-12-09T21:00:23.210Z,102.20
2022-12-09T21:10:23.241Z,102.00
2022-12-09T21:20:23.222Z,85.10
2022-12-09T21:30:23.228Z,93.90
2022-12-09T21:40:23.223Z,77.00
2022-12-09T21:50:23.265Z,91.40
2022-12-09T22:00:23.336Z,88.60
2022-12-09T22:10:23.256Z,78.70
2022-12-09T22:21:00.852Z,97.80
2022-12-09T22:30:23.288Z,91.60
2022-12-09T22:40:23.276Z,79.80
2022-12-09T23:40:23.292Z,101.20
2022-12-09T23:50:23.360Z,100.50
